Terminal Aerodrome Forecast
Issued by NWS

Home | Current Version | Previous Version | Text Only | Print | Product List | Glossary Off
Versions: 1 2 3 4 5 6 7 8 9 10 11 12 13 14 15 16 17 18 19 20

781
FTUS43 KGRB 140520
TAFCWA
TAF
KCWA 140520Z 1406/1506 19002KT P6SM SCT250
     FM141900 18010G15KT P6SM OVC090
     FM142100 17010G16KT 6SM -SN OVC045
     FM142300 17008KT 3SM -SN OVC029
     FM150100 16007KT 2SM -SN OVC025
     FM150400 16005KT 1 1/2SM -SN OVC020
      AMD LTD TO CLD VIS AND WIND TIL 141200=

USA.gov is the U.S. government's official web portal to all federal, state and local government web resources and services.